Time;durP1;ratioP1;P1;durP2;ratioP2;P2;SDS_P1;SDS_P2;PMS_P1;PMS_P2;Temp;Humidity;BMP_temperature;BMP_pressure;BME280_temperature;BME280_humidity;BME280_pressure;Samples;Min_cycle;Max_cycle;Signal;HPM_P1;HPM_P2
2021/04/30 00:00:42;;;;;;;7.55;6.80;;;;;;;7.05;57.51;98448.84;3549429;40;20033;-62
2021/04/30 00:03:16;;;;;;;8.27;6.35;;;;;;;6.74;57.66;98447.16;3549540;40;20046;-62
2021/04/30 00:05:43;;;;;;;8.88;6.43;;;;;;;6.64;58.12;98455.28;3549134;40;20061;-62
2021/04/30 00:08:11;;;;;;;8.98;6.50;;;;;;;6.68;58.55;98445.22;3549084;40;20053;-61
2021/04/30 00:10:40;;;;;;;8.93;6.72;;;;;;;6.67;58.42;98456.75;3539899;40;20039;-62
2021/04/30 00:13:07;;;;;;;7.85;6.20;;;;;;;6.63;58.46;98460.72;3549434;40;20331;-61
2021/04/30 00:15:35;;;;;;;9.02;6.63;;;;;;;6.52;58.42;98458.47;3549419;40;20292;-61
2021/04/30 00:18:05;;;;;;;6.65;5.95;;;;;;;6.46;58.62;98460.00;3549204;40;20054;-61
2021/04/30 00:20:32;;;;;;;7.57;6.13;;;;;;;6.43;58.78;98462.97;3549275;40;20076;-61
2021/04/30 00:23:00;;;;;;;8.50;6.70;;;;;;;6.38;58.75;98471.38;3549488;40;20456;-62
2021/04/30 00:25:27;;;;;;;8.73;6.63;;;;;;;6.39;58.87;98472.19;3549362;40;20327;-61
2021/04/30 00:27:53;;;;;;;8.13;6.95;;;;;;;6.35;58.95;98479.59;3549005;40;20122;-62
2021/04/30 00:30:21;;;;;;;8.10;6.47;;;;;;;6.23;59.21;98477.53;3547952;40;20034;-63
2021/04/30 00:32:49;;;;;;;9.30;6.03;;;;;;;6.26;59.44;98472.75;3549585;40;20060;-61
2021/04/30 00:35:16;;;;;;;7.70;5.95;;;;;;;6.23;59.24;98486.22;3549380;40;20053;-62
2021/04/30 00:37:42;;;;;;;8.63;6.93;;;;;;;6.15;59.56;98473.97;3539968;40;20448;-62
2021/04/30 00:40:10;;;;;;;8.00;6.70;;;;;;;6.12;59.83;98474.31;3548886;40;20054;-62
2021/04/30 00:42:37;;;;;;;7.47;6.78;;;;;;;6.14;59.91;98477.59;3548982;40;20046;-62
2021/04/30 00:45:06;;;;;;;9.00;6.10;;;;;;;6.09;59.85;98473.84;3548850;40;20103;-62
2021/04/30 00:47:35;;;;;;;6.47;5.82;;;;;;;5.85;59.75;98472.13;3549135;40;20053;-62
2021/04/30 00:50:04;;;;;;;8.52;6.65;;;;;;;5.83;60.51;98480.16;3539850;40;20317;-61
2021/04/30 00:52:31;;;;;;;9.23;6.88;;;;;;;5.87;60.36;98483.25;3548899;40;20042;-62
2021/04/30 00:55:00;;;;;;;9.55;7.75;;;;;;;5.85;60.51;98480.00;3549140;40;20050;-61
2021/04/30 00:57:28;;;;;;;9.32;6.75;;;;;;;5.77;60.73;98480.84;3548711;40;20051;-61
2021/04/30 00:59:56;;;;;;;8.20;7.35;;;;;;;5.85;60.83;98478.19;3539988;40;20058;-62
2021/04/30 01:02:23;;;;;;;7.72;6.93;;;;;;;5.90;60.60;98480.28;3539705;40;20305;-61
2021/04/30 01:04:50;;;;;;;8.10;7.18;;;;;;;5.91;60.57;98480.09;3548944;40;20046;-63
2021/04/30 01:07:17;;;;;;;8.45;6.55;;;;;;;5.80;60.53;98482.31;3548555;40;20046;-62
2021/04/30 01:09:44;;;;;;;7.28;6.57;;;;;;;5.64;60.99;98488.44;3539766;40;20050;-63
2021/04/30 01:12:11;;;;;;;7.22;6.22;;;;;;;5.71;60.99;98486.75;3548699;40;20038;-62
2021/04/30 01:14:38;;;;;;;6.60;6.00;;;;;;;5.77;60.85;98480.84;3548825;40;20055;-61
2021/04/30 01:17:05;;;;;;;7.15;6.45;;;;;;;5.75;60.85;98488.03;3548678;40;20380;-61
2021/04/30 01:19:32;;;;;;;7.15;6.45;;;;;;;5.72;60.28;98491.84;3551168;40;20308;-61
2021/04/30 01:22:00;;;;;;;6.68;6.03;;;;;;;5.49;60.94;98495.34;3549031;40;20030;-62
2021/04/30 01:24:28;;;;;;;8.10;6.53;;;;;;;5.40;61.42;98499.78;3548897;40;20079;-61
2021/04/30 01:26:55;;;;;;;8.35;6.32;;;;;;;5.49;61.58;98508.44;3548881;40;20037;-61
2021/04/30 01:29:22;;;;;;;7.68;6.43;;;;;;;5.54;61.41;98506.13;3548899;40;20085;-63
2021/04/30 01:31:49;;;;;;;7.75;6.10;;;;;;;5.51;60.92;98503.84;3549204;40;20058;-63
2021/04/30 01:34:16;;;;;;;7.22;6.53;;;;;;;5.42;61.39;98514.34;3549051;40;20152;-62
2021/04/30 01:36:43;;;;;;;6.72;6.00;;;;;;;5.51;61.57;98509.09;3548758;40;20065;-63
2021/04/30 01:39:13;;;;;;;9.10;6.70;;;;;;;5.59;60.99;98509.06;3548802;40;20061;-62
2021/04/30 01:41:42;;;;;;;8.32;6.53;;;;;;;5.38;61.50;98507.81;3540310;40;20047;-62
2021/04/30 01:44:10;;;;;;;8.73;6.95;;;;;;;5.35;61.57;98513.41;3549055;40;20352;-62
2021/04/30 01:46:38;;;;;;;7.10;6.40;;;;;;;5.36;61.39;98515.03;3548013;40;20344;-62
2021/04/30 01:49:06;;;;;;;7.47;6.72;;;;;;;5.27;61.18;98521.28;3548350;40;20054;-62
2021/04/30 01:51:35;;;;;;;8.07;7.25;;;;;;;5.18;61.60;98522.25;3548224;40;20093;-61
2021/04/30 01:54:03;;;;;;;7.22;6.53;;;;;;;5.10;61.69;98519.63;3548522;40;20053;-61
2021/04/30 01:56:31;;;;;;;8.25;6.63;;;;;;;4.88;62.35;98523.72;3548718;40;20086;-61
2021/04/30 01:58:58;;;;;;;6.95;6.25;;;;;;;4.85;62.21;98524.88;3548246;40;20471;-61
2021/04/30 02:01:24;;;;;;;7.70;6.70;;;;;;;4.97;62.27;98530.59;3548509;40;20371;-61
2021/04/30 02:03:57;;;;;;;5.97;5.38;;;;;;;4.94;62.16;98530.94;3548560;40;20069;-62
2021/04/30 02:06:24;;;;;;;7.03;6.03;;;;;;;4.89;62.25;98520.13;3549089;40;20038;-61
2021/04/30 02:08:51;;;;;;;6.97;5.65;;;;;;;4.84;62.60;98507.50;3548882;40;20050;-63
2021/04/30 02:11:18;;;;;;;7.18;6.50;;;;;;;4.66;62.41;98504.25;3603949;23;20079;-66
2021/04/30 02:13:45;;;;;;;6.63;5.93;;;;;;;4.57;62.67;98498.19;3548492;40;20050;-67
2021/04/30 02:16:12;;;;;;;7.57;6.20;;;;;;;4.60;62.94;98497.03;3548576;40;20148;-65
2021/04/30 02:18:39;;;;;;;8.15;6.32;;;;;;;4.60;63.10;98492.59;3541757;40;20403;-64
2021/04/30 02:21:06;;;;;;;7.03;6.32;;;;;;;4.61;63.15;98496.88;3552708;40;20046;-65
2021/04/30 02:23:33;;;;;;;6.38;5.78;;;;;;;4.55;63.08;98505.38;3552422;40;20328;-65
2021/04/30 02:26:00;;;;;;;6.35;5.75;;;;;;;4.63;62.87;98500.13;3552342;40;20422;-65
2021/04/30 02:28:26;;;;;;;9.00;6.47;;;;;;;4.46;63.26;98501.91;3543394;40;20062;-65
2021/04/30 02:30:54;;;;;;;7.13;6.30;;;;;;;4.60;63.40;98499.63;3543566;40;20050;-65
2021/04/30 02:33:21;;;;;;;8.18;6.43;;;;;;;4.74;63.11;98503.44;3540770;40;20105;-65
2021/04/30 02:35:49;;;;;;;10.18;7.20;;;;;;;4.64;62.84;98514.84;3550156;40;20050;-64
2021/04/30 02:38:19;;;;;;;7.53;6.75;;;;;;;4.72;63.30;98514.06;3549664;40;20050;-65
2021/04/30 02:40:47;;;;;;;6.95;6.25;;;;;;;4.88;62.55;98521.09;3550143;40;20039;-67
2021/04/30 02:43:16;;;;;;;8.55;7.28;;;;;;;4.95;62.19;98511.63;3543412;40;20062;-65
2021/04/30 02:45:44;;;;;;;8.32;7.05;;;;;;;4.69;62.36;98504.75;3556215;40;20103;-65
2021/04/30 02:48:13;;;;;;;8.95;7.57;;;;;;;4.60;62.83;98502.25;3556822;40;20090;-65
2021/04/30 02:50:41;;;;;;;10.88;7.55;;;;;;;4.66;62.79;98502.44;3544403;40;20046;-66
2021/04/30 02:53:08;;;;;;;10.63;8.27;;;;;;;4.69;62.76;98496.03;3550073;40;20050;-67
2021/04/30 02:55:35;;;;;;;8.55;7.18;;;;;;;4.72;62.59;98501.78;3550100;40;20057;-66
2021/04/30 02:58:02;;;;;;;8.10;6.75;;;;;;;4.83;62.48;98498.03;3540456;40;20054;-65
2021/04/30 03:00:30;;;;;;;8.77;7.20;;;;;;;4.86;62.13;98499.50;3551082;40;20392;-64
2021/04/30 03:02:58;;;;;;;8.85;7.65;;;;;;;4.91;62.22;98495.41;3541512;40;20058;-65
2021/04/30 03:05:26;;;;;;;10.27;7.60;;;;;;;4.77;62.19;98490.00;3549541;40;20050;-64
2021/04/30 03:07:53;;;;;;;12.20;7.93;;;;;;;4.70;62.64;98482.00;3549738;40;20037;-64
2021/04/30 03:10:20;;;;;;;8.57;6.60;;;;;;;4.54;62.30;98487.22;3550405;40;20078;-65
2021/04/30 03:12:48;;;;;;;8.60;7.70;;;;;;;4.29;62.29;98487.16;3550702;40;20050;-65
2021/04/30 03:15:16;;;;;;;9.30;7.40;;;;;;;4.08;63.33;98490.22;3551669;40;20054;-64
2021/04/30 03:17:43;;;;;;;8.45;7.55;;;;;;;4.05;63.93;98501.00;3542135;40;20076;-65
2021/04/30 03:20:12;;;;;;;18.15;13.43;;;;;;;4.12;64.04;98495.94;3551925;40;20061;-65
2021/04/30 03:22:40;;;;;;;9.52;7.45;;;;;;;3.97;64.24;98495.72;3551943;40;20050;-66
2021/04/30 03:25:09;;;;;;;9.48;7.50;;;;;;;4.02;64.35;98484.78;3551901;40;20082;-65
2021/04/30 03:27:36;;;;;;;9.85;7.80;;;;;;;4.09;64.24;98481.38;3541600;40;20288;-64
2021/04/30 03:30:04;;;;;;;9.80;7.25;;;;;;;4.00;63.87;98476.28;3549963;40;20050;-65
2021/04/30 03:32:31;;;;;;;8.07;7.18;;;;;;;3.89;63.76;98491.28;3549993;40;20054;-65
2021/04/30 03:34:58;;;;;;;6.82;6.13;;;;;;;3.84;63.83;98488.34;3540913;40;20300;-65
2021/04/30 03:37:25;;;;;;;6.80;5.82;;;;;;;3.83;64.22;98483.25;3549308;40;20072;-65
2021/04/30 03:39:53;;;;;;;6.50;5.90;;;;;;;3.87;63.96;98490.59;3548544;40;20399;-64
2021/04/30 03:42:20;;;;;;;6.78;5.63;;;;;;;3.85;63.64;98489.16;3548218;40;20043;-65
2021/04/30 03:44:46;;;;;;;7.28;6.25;;;;;;;3.80;63.45;98492.25;3548927;40;20051;-65
2021/04/30 03:47:13;;;;;;;8.30;6.25;;;;;;;3.74;63.76;98500.69;3540153;40;20054;-65
2021/04/30 03:49:40;;;;;;;7.03;5.95;;;;;;;3.75;63.85;98489.25;3540345;40;20046;-64
2021/04/30 03:52:07;;;;;;;6.28;5.65;;;;;;;3.78;63.93;98491.56;3540069;40;20057;-66
2021/04/30 03:54:35;;;;;;;9.07;6.38;;;;;;;3.82;63.62;98502.53;3540158;40;20050;-65
2021/04/30 03:57:03;;;;;;;8.63;6.43;;;;;;;3.69;63.58;98500.34;3549455;40;20112;-65
2021/04/30 03:59:30;;;;;;;7.35;6.50;;;;;;;3.53;63.72;98501.06;3549669;40;20327;-64
2021/04/30 04:01:57;;;;;;;7.55;6.40;;;;;;;3.34;64.09;98496.88;3549815;40;20050;-64
2021/04/30 04:04:24;;;;;;;6.80;6.10;;;;;;;3.22;64.60;98498.94;3551260;40;20073;-65
2021/04/30 04:06:51;;;;;;;9.30;7.00;;;;;;;3.13;65.07;98499.03;3549991;40;20546;-65
2021/04/30 04:09:18;;;;;;;9.68;6.50;;;;;;;3.12;65.09;98502.63;3540928;40;20057;-66
2021/04/30 04:11:46;;;;;;;7.50;6.68;;;;;;;3.16;65.05;98504.78;3550166;40;20034;-65
2021/04/30 04:14:13;;;;;;;7.85;6.60;;;;;;;3.07;65.13;98515.31;3550192;40;20407;-66
2021/04/30 04:16:40;;;;;;;8.85;6.63;;;;;;;3.11;65.36;98516.66;3551421;40;20136;-67
2021/04/30 04:19:09;;;;;;;7.70;6.72;;;;;;;3.15;65.43;98515.38;3553761;40;20052;-66
2021/04/30 04:21:36;;;;;;;7.30;6.60;;;;;;;3.08;65.13;98512.53;3556075;40;20046;-65
2021/04/30 04:24:03;;;;;;;7.47;6.60;;;;;;;3.07;65.55;98507.47;3554449;40;20125;-65
2021/04/30 04:26:30;;;;;;;9.07;6.68;;;;;;;3.04;65.41;98505.97;3549823;40;20046;-66
2021/04/30 04:28:57;;;;;;;8.85;6.90;;;;;;;3.00;65.47;98514.28;3549316;40;20053;-65
2021/04/30 04:31:25;;;;;;;10.85;6.35;;;;;;;2.92;65.87;98504.59;3549671;40;20097;-67
2021/04/30 04:33:52;;;;;;;7.15;6.38;;;;;;;2.95;65.75;98512.94;3549699;40;20046;-66
2021/04/30 04:36:18;;;;;;;8.48;7.07;;;;;;;2.96;65.78;98511.16;3549679;40;20050;-66
2021/04/30 04:38:45;;;;;;;9.43;7.25;;;;;;;2.99;66.06;98508.25;3550079;40;20053;-65
2021/04/30 04:41:12;;;;;;;11.18;7.15;;;;;;;3.07;65.94;98518.75;3550697;40;20054;-66
2021/04/30 04:43:39;;;;;;;8.85;7.07;;;;;;;3.15;65.61;98524.03;3550593;40;20058;-65
2021/04/30 04:46:06;;;;;;;8.77;6.43;;;;;;;3.15;65.34;98515.38;3550836;40;20050;-66
2021/04/30 04:48:33;;;;;;;9.05;6.82;;;;;;;3.27;65.63;98523.78;3550140;40;20054;-66
2021/04/30 04:51:00;;;;;;;8.70;7.57;;;;;;;3.40;65.05;98521.59;3541594;40;20093;-65
2021/04/30 04:53:27;;;;;;;9.52;6.75;;;;;;;3.46;64.63;98516.53;3550515;40;20057;-65
2021/04/30 04:56:14;;;;;;;9.07;7.00;;;;;;;3.52;64.41;98509.09;3549218;40;20046;-64
2021/04/30 04:58:41;;;;;;;9.13;7.32;;;;;;;3.52;64.37;98514.31;3549190;40;20082;-64
2021/04/30 05:01:07;;;;;;;9.45;7.18;;;;;;;3.57;64.62;98515.47;3540678;40;20049;-65
2021/04/30 05:03:35;;;;;;;7.80;7.00;;;;;;;3.69;64.21;98521.25;3550094;40;20124;-66
2021/04/30 05:06:02;;;;;;;8.45;6.53;;;;;;;3.82;64.24;98521.66;3549535;40;20054;-65
2021/04/30 05:08:29;;;;;;;7.47;6.65;;;;;;;3.96;63.95;98535.94;3549078;40;20054;-65
2021/04/30 05:10:56;;;;;;;7.75;6.95;;;;;;;4.12;63.64;98530.78;3550751;40;20038;-66
2021/04/30 05:13:23;;;;;;;9.23;7.03;;;;;;;4.23;63.06;98519.19;3554147;40;20078;-67
2021/04/30 05:15:52;;;;;;;9.52;7.47;;;;;;;4.27;62.98;98520.50;3554590;40;20399;-66
2021/04/30 05:18:19;;;;;;;10.27;7.95;;;;;;;4.40;62.92;98518.25;3554661;40;20046;-66
2021/04/30 05:20:47;;;;;;;8.55;7.50;;;;;;;4.37;62.51;98510.75;3539582;40;20293;-65
2021/04/30 05:23:14;;;;;;;11.63;8.00;;;;;;;4.31;62.03;98498.28;3548875;40;20057;-66
2021/04/30 05:25:41;;;;;;;11.10;7.57;;;;;;;4.31;62.90;98500.06;3552652;40;20057;-66
2021/04/30 05:28:08;;;;;;;12.13;7.93;;;;;;;4.60;62.60;98500.44;3552580;40;20078;-66
2021/04/30 05:30:35;;;;;;;18.33;12.80;;;;;;;4.86;62.64;98507.38;3544179;40;20035;-66
2021/04/30 05:33:02;;;;;;;8.55;7.63;;;;;;;5.03;62.00;98516.03;3540097;40;20046;-66
2021/04/30 05:35:29;;;;;;;8.55;7.65;;;;;;;5.13;61.53;98521.91;3539758;40;20065;-66
2021/04/30 05:37:56;;;;;;;9.70;7.97;;;;;;;5.06;61.12;98510.47;3548579;40;20057;-66
2021/04/30 05:40:24;;;;;;;13.93;8.63;;;;;;;5.20;61.28;98515.88;3550692;40;20090;-66
2021/04/30 05:42:51;;;;;;;12.02;8.57;;;;;;;5.27;60.74;98507.34;3541784;40;20061;-66
2021/04/30 05:45:18;;;;;;;10.63;8.23;;;;;;;5.45;61.04;98500.91;3550249;40;20327;-66
2021/04/30 05:47:45;;;;;;;9.55;8.55;;;;;;;5.70;60.23;98498.22;3540993;40;20054;-66
2021/04/30 05:50:13;;;;;;;9.93;8.35;;;;;;;5.72;59.84;98509.38;3549351;40;20057;-66
2021/04/30 05:52:40;;;;;;;10.20;8.70;;;;;;;5.83;59.69;98506.38;3547987;40;20053;-66
2021/04/30 05:55:10;;;;;;;11.30;9.13;;;;;;;5.93;59.92;98516.72;3548649;40;20391;-67
2021/04/30 05:57:37;;;;;;;12.65;8.65;;;;;;;6.05;59.59;98511.91;3548432;40;20486;-65
2021/04/30 06:00:05;;;;;;;13.23;10.20;;;;;;;6.14;59.00;98518.75;3548490;40;20426;-65
2021/04/30 06:02:39;;;;;;;9.55;8.35;;;;;;;6.06;58.78;98516.16;3549666;40;20030;-64
2021/04/30 06:05:08;;;;;;;11.23;9.35;;;;;;;6.09;59.05;98516.66;3548995;40;20062;-64
2021/04/30 06:07:35;;;;;;;16.60;11.75;;;;;;;6.07;58.75;98517.81;3552259;40;20053;-64
2021/04/30 06:10:03;;;;;;;14.18;9.88;;;;;;;6.10;58.68;98512.22;3553437;40;20049;-66
2021/04/30 06:12:31;;;;;;;17.73;11.18;;;;;;;6.12;58.56;98504.97;3544746;40;20050;-65
2021/04/30 06:14:58;;;;;;;13.25;10.32;;;;;;;6.07;58.34;98500.25;3554345;40;20108;-65
2021/04/30 06:17:25;;;;;;;15.50;9.57;;;;;;;6.00;58.88;98499.31;3554217;40;20054;-65
2021/04/30 06:19:52;;;;;;;17.27;12.23;;;;;;;6.13;58.91;98504.00;3553987;40;20053;-65
2021/04/30 06:22:18;;;;;;;13.40;11.52;;;;;;;6.17;58.51;98503.50;3554668;40;20057;-65
2021/04/30 06:24:46;;;;;;;12.75;10.25;;;;;;;6.21;58.61;98506.59;3553912;40;20050;-65
2021/04/30 06:27:12;;;;;;;12.93;11.00;;;;;;;6.33;58.49;98518.34;3553794;40;20054;-64
2021/04/30 06:29:40;;;;;;;12.70;10.27;;;;;;;6.36;58.34;98520.59;3553806;40;20050;-64
2021/04/30 06:32:07;;;;;;;19.23;11.25;;;;;;;6.48;58.11;98518.41;3554103;40;20046;-64
2021/04/30 06:34:35;;;;;;;13.05;10.32;;;;;;;6.52;57.65;98514.44;3550221;40;20047;-64
2021/04/30 06:37:03;;;;;;;12.18;10.48;;;;;;;6.42;57.76;98503.34;3550113;40;20340;-64
2021/04/30 06:39:29;;;;;;;13.55;10.40;;;;;;;6.50;57.64;98513.00;3549980;40;20136;-64
2021/04/30 06:42:01;;;;;;;17.05;10.50;;;;;;;6.53;57.79;98502.13;3549921;40;20058;-63
2021/04/30 06:44:29;;;;;;;11.77;10.13;;;;;;;6.59;57.79;98504.88;3550357;40;20128;-65
2021/04/30 06:46:58;;;;;;;14.10;11.05;;;;;;;6.66;57.60;98508.47;3549642;40;20404;-64
2021/04/30 06:49:25;;;;;;;15.23;9.95;;;;;;;6.71;57.68;98510.56;3549764;40;20058;-64
2021/04/30 06:51:52;;;;;;;14.20;11.15;;;;;;;6.83;57.66;98505.72;3550762;40;20053;-64
2021/04/30 06:54:19;;;;;;;12.60;10.18;;;;;;;6.76;57.22;98496.91;3550150;40;20362;-64
2021/04/30 06:56:46;;;;;;;12.65;10.82;;;;;;;6.83;57.65;98495.22;3550563;40;20054;-64
2021/04/30 06:59:13;;;;;;;14.25;11.65;;;;;;;6.94;57.87;98506.13;3549570;40;20046;-64
2021/04/30 07:01:40;;;;;;;15.48;10.27;;;;;;;7.07;57.78;98505.53;3549612;40;20046;-64
2021/04/30 07:04:08;;;;;;;12.65;10.02;;;;;;;7.19;57.87;98509.34;3549844;40;20057;-64
2021/04/30 07:06:35;;;;;;;13.18;10.70;;;;;;;7.40;57.53;98511.31;3550216;40;20046;-64
2021/04/30 07:09:03;;;;;;;13.73;11.27;;;;;;;7.58;57.28;98512.75;3550165;40;20037;-64
2021/04/30 07:11:30;;;;;;;12.93;11.05;;;;;;;7.70;56.99;98517.38;3550330;40;20097;-64
2021/04/30 07:13:57;;;;;;;16.65;12.80;;;;;;;7.78;57.01;98520.94;3541122;40;20061;-64
2021/04/30 07:16:25;;;;;;;18.02;12.45;;;;;;;7.82;56.72;98515.13;3550079;40;20112;-64
2021/04/30 07:18:52;;;;;;;17.13;12.48;;;;;;;7.94;56.79;98513.66;3548987;40;20058;-63
2021/04/30 07:21:19;;;;;;;14.40;11.55;;;;;;;8.02;56.60;98514.59;3549796;40;20057;-64
2021/04/30 07:23:46;;;;;;;13.88;11.48;;;;;;;8.03;55.89;98519.66;3549760;40;20061;-64
2021/04/30 07:26:13;;;;;;;15.07;12.95;;;;;;;8.11;55.71;98513.47;3550659;40;20047;-64
2021/04/30 07:28:40;;;;;;;19.00;12.65;;;;;;;8.05;55.54;98509.78;3550127;40;20053;-64
2021/04/30 07:31:07;;;;;;;15.73;13.65;;;;;;;8.07;55.96;98501.69;3553234;40;20069;-63
2021/04/30 07:33:34;;;;;;;17.02;14.02;;;;;;;8.06;56.13;98503.50;3556240;40;20046;-64
2021/04/30 07:36:05;;;;;;;16.45;12.85;;;;;;;8.23;56.27;98503.28;3556296;40;20053;-64
2021/04/30 07:38:32;;;;;;;17.27;13.00;;;;;;;8.27;56.18;98508.00;3542382;40;20095;-63
2021/04/30 07:40:59;;;;;;;14.43;12.65;;;;;;;8.29;56.13;98515.72;3549570;40;20353;-63
2021/04/30 07:43:26;;;;;;;15.13;12.18;;;;;;;8.28;56.12;98521.97;3549521;40;20050;-63
2021/04/30 07:45:53;;;;;;;15.85;13.90;;;;;;;8.23;56.30;98525.16;3549478;40;20054;-63
2021/04/30 07:48:20;;;;;;;18.02;14.30;;;;;;;8.23;56.67;98529.63;3549401;40;20065;-64
2021/04/30 07:50:47;;;;;;;17.50;14.25;;;;;;;8.33;56.25;98527.53;3540029;40;20049;-64
2021/04/30 07:53:14;;;;;;;19.17;14.60;;;;;;;8.24;56.49;98524.16;3540205;40;20046;-63
2021/04/30 07:55:41;;;;;;;18.33;15.65;;;;;;;8.26;56.27;98526.63;3549509;40;20085;-63
2021/04/30 07:58:08;;;;;;;20.60;15.70;;;;;;;8.14;56.42;98536.81;3549095;40;20395;-63
2021/04/30 08:00:35;;;;;;;18.88;15.20;;;;;;;8.11;56.59;98537.97;3549443;40;20054;-63
2021/04/30 08:03:02;;;;;;;20.67;15.57;;;;;;;8.17;56.54;98533.81;3549930;40;20050;-64
2021/04/30 08:05:29;;;;;;;18.80;15.93;;;;;;;8.26;56.44;98526.63;3549463;40;20089;-64
2021/04/30 08:07:59;;;;;;;18.27;15.02;;;;;;;8.28;56.53;98530.69;3539833;40;20042;-65
2021/04/30 08:10:26;;;;;;;18.98;14.55;;;;;;;8.39;56.38;98535.53;3549527;40;20050;-63
2021/04/30 08:12:54;;;;;;;18.02;15.65;;;;;;;8.36;55.83;98540.31;3549366;40;20050;-64
2021/04/30 08:15:21;;;;;;;20.58;14.95;;;;;;;8.43;56.02;98547.31;3549693;40;20309;-64
2021/04/30 08:17:48;;;;;;;20.60;15.40;;;;;;;8.48;56.18;98546.75;3549500;40;20108;-63
2021/04/30 08:20:15;;;;;;;21.38;16.80;;;;;;;8.55;56.07;98542.41;3549249;40;20054;-64
2021/04/30 08:22:42;;;;;;;22.92;19.65;;;;;;;8.68;55.73;98537.25;3549485;40;20595;-65
2021/04/30 08:25:10;;;;;;;19.52;17.38;;;;;;;8.54;55.31;98539.97;3553077;40;20062;-64
2021/04/30 08:27:36;;;;;;;20.48;15.45;;;;;;;8.59;55.58;98534.94;3554843;40;20102;-63
2021/04/30 08:30:06;;;;;;;23.98;15.73;;;;;;;8.73;55.63;98541.16;3555078;40;20043;-66
2021/04/30 08:32:33;;;;;;;18.90;16.27;;;;;;;8.90;55.46;98542.56;3541489;40;20054;-65
2021/04/30 08:35:01;;;;;;;22.67;17.05;;;;;;;8.84;54.95;98538.03;3549312;40;20423;-64
2021/04/30 08:37:27;;;;;;;22.30;15.93;;;;;;;8.85;55.11;98537.84;3549710;40;20050;-64
2021/04/30 08:39:55;;;;;;;21.98;16.73;;;;;;;8.89;55.07;98535.63;3541121;40;20053;-64
2021/04/30 08:42:22;;;;;;;19.33;15.23;;;;;;;8.92;54.93;98540.53;3549681;40;20117;-63
2021/04/30 08:44:49;;;;;;;20.63;15.43;;;;;;;8.93;55.00;98539.53;3551357;40;20069;-63
2021/04/30 08:47:18;;;;;;;18.00;15.35;;;;;;;9.02;54.79;98546.34;3549679;40;20058;-64
2021/04/30 08:49:46;;;;;;;24.13;15.60;;;;;;;9.11;54.89;98545.19;3550283;40;20470;-64
2021/04/30 08:52:15;;;;;;;20.88;15.90;;;;;;;9.11;54.49;98541.75;3549890;40;20096;-63
2021/04/30 08:54:42;;;;;;;25.98;18.85;;;;;;;9.01;54.32;98536.78;3541814;40;20046;-64
2021/04/30 08:57:11;;;;;;;33.22;22.88;;;;;;;8.84;54.38;98538.84;3551646;40;20053;-63
2021/04/30 08:59:37;;;;;;;22.77;16.95;;;;;;;8.68;54.84;98537.25;3552402;40;20054;-63
2021/04/30 09:02:05;;;;;;;22.40;18.38;;;;;;;8.59;54.90;98533.13;3551545;40;20073;-64
2021/04/30 09:04:34;;;;;;;18.42;14.95;;;;;;;8.64;54.19;98535.19;3541871;40;20054;-64
2021/04/30 09:07:15;;;;;;;20.98;16.30;;;;;;;8.53;54.23;98540.94;3550625;40;20050;-64
2021/04/30 09:10:00;;;;;;;20.90;15.80;;;;;;;8.52;54.09;98540.13;3550591;40;20400;-64
2021/04/30 09:12:28;;;;;;;18.70;15.55;;;;;;;8.50;53.99;98544.78;3550757;40;20388;-64
2021/04/30 09:14:56;;;;;;;18.65;14.98;;;;;;;8.47;54.56;98537.22;3550109;40;20331;-64
2021/04/30 09:17:25;;;;;;;19.85;15.40;;;;;;;8.53;54.64;98533.03;3549487;40;20331;-65
2021/04/30 09:19:58;;;;;;;16.45;14.38;;;;;;;8.53;54.82;98525.13;3549312;40;20046;-64
2021/04/30 09:22:26;;;;;;;21.02;15.48;;;;;;;8.68;54.44;98528.53;3548874;40;20054;-64
2021/04/30 09:24:54;;;;;;;18.88;15.00;;;;;;;8.94;54.17;98525.38;3549981;40;20506;-64
2021/04/30 09:27:37;;;;;;;17.88;14.38;;;;;;;9.08;53.42;98519.19;3550124;40;20065;-65
2021/04/30 09:30:30;;;;;;;15.45;13.77;;;;;;;9.14;51.91;98518.44;3550834;40;20054;-65
2021/04/30 09:33:16;;;;;;;16.98;13.88;;;;;;;9.11;51.67;98510.91;3549239;40;20050;-64
2021/04/30 09:35:45;;;;;;;18.17;15.60;;;;;;;9.14;51.78;98510.53;3550709;40;20046;-63
2021/04/30 09:38:27;;;;;;;16.02;13.38;;;;;;;9.18;50.81;98510.94;3550595;40;20027;-64
2021/04/30 09:41:09;;;;;;;16.75;13.43;;;;;;;9.25;50.76;98509.19;3541015;40;20058;-64
2021/04/30 09:43:44;;;;;;;15.20;13.57;;;;;;;9.46;50.94;98507.50;3551373;40;20486;-64
2021/04/30 09:46:29;;;;;;;18.95;14.43;;;;;;;9.58;50.60;98485.66;3551197;40;20133;-64
2021/04/30 09:48:59;;;;;;;17.13;13.10;;;;;;;9.68;50.60;98493.25;3550770;40;20046;-66
2021/04/30 09:51:44;;;;;;;15.13;11.68;;;;;;;9.78;49.96;98493.72;3550376;40;20057;-65
2021/04/30 09:54:22;;;;;;;14.98;12.00;;;;;;;9.88;48.50;98485.44;3550196;40;20434;-65
2021/04/30 09:57:01;;;;;;;15.68;12.68;;;;;;;9.87;47.58;98486.44;3550198;40;20423;-64
2021/04/30 09:59:55;;;;;;;23.50;13.40;;;;;;;9.86;47.59;98492.72;3551746;40;20046;-65
2021/04/30 10:02:23;;;;;;;14.77;10.98;;;;;;;9.84;46.50;98492.13;3543199;40;20403;-64
2021/04/30 10:04:53;;;;;;;18.63;10.73;;;;;;;9.78;46.45;98496.34;3552907;40;20094;-65
2021/04/30 10:07:29;;;;;;;10.20;9.20;;;;;;;9.68;45.46;98494.06;3552512;40;20045;-64
2021/04/30 10:10:09;;;;;;;12.45;10.15;;;;;;;9.65;44.66;98485.72;3551865;40;20372;-64
2021/04/30 10:12:37;;;;;;;14.45;10.00;;;;;;;9.67;45.32;98475.78;3542270;40;20038;-64
2021/04/30 10:15:06;;;;;;;11.63;9.07;;;;;;;9.73;44.72;98482.13;3543050;40;20046;-67
2021/04/30 10:17:33;;;;;;;14.73;12.27;;;;;;;9.73;43.57;98475.00;3550587;40;20414;-65
2021/04/30 10:20:00;;;;;;;13.68;8.88;;;;;;;9.72;43.35;98470.75;3550501;40;20050;-65
2021/04/30 10:22:28;;;;;;;14.52;11.02;;;;;;;9.81;42.44;98468.75;3549967;40;20039;-64
2021/04/30 10:25:17;;;;;;;13.13;9.98;;;;;;;9.88;42.61;98461.69;3550803;40;20066;-64
2021/04/30 10:27:46;;;;;;;14.00;10.00;;;;;;;10.02;42.52;98463.34;3553203;40;20054;-63
2021/04/30 10:30:30;;;;;;;12.23;8.43;;;;;;;10.01;42.31;98466.22;3553244;40;20046;-64
2021/04/30 10:33:05;;;;;;;12.32;10.00;;;;;;;10.12;42.33;98466.47;3551078;40;20049;-64
2021/04/30 10:35:39;;;;;;;14.52;9.48;;;;;;;10.12;42.30;98460.34;3550991;40;20046;-65
2021/04/30 10:38:12;;;;;;;10.88;8.85;;;;;;;10.10;42.21;98457.09;3544265;40;20056;-65
2021/04/30 10:40:51;;;;;;;11.00;8.77;;;;;;;10.09;41.93;98458.94;3542867;40;20297;-65
2021/04/30 10:43:19;;;;;;;10.80;8.68;;;;;;;10.07;42.19;98452.19;3549898;40;20392;-64
2021/04/30 10:46:07;;;;;;;11.15;9.68;;;;;;;10.10;42.28;98446.53;3549998;40;20050;-65
2021/04/30 10:48:38;;;;;;;12.30;9.30;;;;;;;10.14;42.75;98453.84;3549811;40;20057;-65
2021/04/30 10:51:13;;;;;;;10.88;7.50;;;;;;;10.16;41.33;98457.13;3549924;40;20046;-64
2021/04/30 10:53:41;;;;;;;8.93;6.72;;;;;;;10.02;40.47;98459.91;3549238;40;20046;-64
2021/04/30 10:56:27;;;;;;;11.52;7.20;;;;;;;10.01;40.40;98466.22;3540466;40;20054;-64
2021/04/30 10:58:54;;;;;;;8.10;7.07;;;;;;;9.98;39.90;98463.94;3549777;40;20089;-64
2021/04/30 11:01:26;;;;;;;12.88;7.65;;;;;;;9.85;40.07;98473.44;3549836;40;20038;-64
2021/04/30 11:04:13;;;;;;;9.02;6.97;;;;;;;9.75;40.76;98470.34;3549772;40;20058;-63
2021/04/30 11:06:42;;;;;;;9.93;8.38;;;;;;;9.74;41.06;98471.34;3549788;40;20069;-63
2021/04/30 11:09:14;;;;;;;12.32;8.43;;;;;;;9.66;40.96;98467.03;3549472;40;20046;-65
2021/04/30 11:11:42;;;;;;;11.10;7.63;;;;;;;9.65;41.62;98469.88;3551593;40;20062;-64
2021/04/30 11:14:24;;;;;;;9.73;7.78;;;;;;;9.83;41.50;98472.00;3552184;40;20061;-65
2021/04/30 11:16:52;;;;;;;10.75;7.78;;;;;;;9.93;41.41;98483.03;3543943;40;20042;-65
2021/04/30 11:19:20;;;;;;;11.38;8.65;;;;;;;9.99;41.38;98482.22;3551724;40;20054;-66
2021/04/30 11:21:50;;;;;;;8.00;7.20;;;;;;;10.04;41.43;98482.47;3552960;40;20412;-64
2021/04/30 11:24:42;;;;;;;8.93;6.40;;;;;;;10.07;40.87;98497.09;3553077;40;20324;-65
2021/04/30 11:27:38;;;;;;;9.05;7.03;;;;;;;10.14;41.03;98498.75;3552901;40;20046;-64
2021/04/30 11:30:19;;;;;;;11.35;7.97;;;;;;;10.14;40.51;98509.31;3553482;40;20053;-64
2021/04/30 11:32:51;;;;;;;10.23;7.07;;;;;;;10.06;40.60;98511.31;3552985;40;20595;-64
2021/04/30 11:35:19;;;;;;;8.70;7.20;;;;;;;10.14;40.86;98516.44;3553010;40;20054;-64
2021/04/30 11:37:48;;;;;;;11.30;7.03;;;;;;;10.24;40.55;98500.22;3551660;40;20042;-64
2021/04/30 11:40:23;;;;;;;7.88;6.50;;;;;;;10.36;40.18;98514.50;3552419;40;20129;-64
2021/04/30 11:43:03;;;;;;;9.32;7.35;;;;;;;10.50;40.20;98500.34;3552541;40;20057;-65